Alghero / Fertilia Airport LIEA

Flugplatz Daten

Name: Alghero / Fertilia Airport

Ident: LIEA

Lat: 40,63209915

Long: 8,290769577

Platzhöhe: 87 ft

IataCode: AHO

City: Alghero

Homepage: http://www.aeroportodialghero.it/home_en.asp

Metar

2022/08/13 17:20
LIEA 131720Z 21009KT 9999 SCT020 29/26 Q1010

Taf

2022/08/13 12:07
TAF LIEA 131100Z 1312/1412 22013KT 9999 SCT040
TEMPO 1312/1314 TSRA FEW025CB
BECMG 1317/1319 04006KT
Gewünschte Webcam nicht vorhanden? Dann fügen Sie eine hinzu. Sie wird dann so schnell wie möglich freigeschaltet
Url: Title: